sensor_id;sensor_type;location;lat;lon;timestamp;P1;durP1;ratioP1;P2;durP2;ratioP2
66380;SDS011;53177;52.648;1.214;2022-07-23T00:00:32;5.18;;;1.55;;
66380;SDS011;53177;52.648;1.214;2022-07-23T00:02:58;6.43;;;1.60;;
66380;SDS011;53177;52.648;1.214;2022-07-23T00:05:23;5.30;;;1.50;;
66380;SDS011;53177;52.648;1.214;2022-07-23T00:07:49;4.77;;;1.53;;
66380;SDS011;53177;52.648;1.214;2022-07-23T00:10:15;5.60;;;1.77;;
66380;SDS011;53177;52.648;1.214;2022-07-23T00:12:41;5.15;;;1.52;;
66380;SDS011;53177;52.648;1.214;2022-07-23T00:15:08;4.30;;;1.40;;
66380;SDS011;53177;52.648;1.214;2022-07-23T00:17:34;5.33;;;1.60;;
66380;SDS011;53177;52.648;1.214;2022-07-23T00:19:59;5.00;;;1.60;;
66380;SDS011;53177;52.648;1.214;2022-07-23T00:22:25;5.00;;;1.50;;
66380;SDS011;53177;52.648;1.214;2022-07-23T00:24:52;5.10;;;1.63;;
66380;SDS011;53177;52.648;1.214;2022-07-23T00:27:18;4.67;;;1.77;;
66380;SDS011;53177;52.648;1.214;2022-07-23T00:29:43;5.47;;;1.50;;
66380;SDS011;53177;52.648;1.214;2022-07-23T00:32:08;4.53;;;2.03;;
66380;SDS011;53177;52.648;1.214;2022-07-23T00:34:34;4.97;;;1.30;;
66380;SDS011;53177;52.648;1.214;2022-07-23T00:36:59;5.73;;;1.60;;
66380;SDS011;53177;52.648;1.214;2022-07-23T00:39:24;4.97;;;1.43;;
66380;SDS011;53177;52.648;1.214;2022-07-23T00:41:50;4.47;;;1.33;;
66380;SDS011;53177;52.648;1.214;2022-07-23T00:44:23;4.68;;;1.75;;
66380;SDS011;53177;52.648;1.214;2022-07-23T00:46:52;5.93;;;1.50;;
66380;SDS011;53177;52.648;1.214;2022-07-23T00:49:20;5.03;;;1.50;;
66380;SDS011;53177;52.648;1.214;2022-07-23T00:51:46;4.43;;;1.47;;
66380;SDS011;53177;52.648;1.214;2022-07-23T00:54:12;5.50;;;1.48;;
66380;SDS011;53177;52.648;1.214;2022-07-23T00:56:38;4.85;;;1.42;;
66380;SDS011;53177;52.648;1.214;2022-07-23T00:59:05;3.83;;;1.40;;
66380;SDS011;53177;52.648;1.214;2022-07-23T01:01:31;7.25;;;1.67;;
66380;SDS011;53177;52.648;1.214;2022-07-23T01:03:56;4.93;;;1.30;;
66380;SDS011;53177;52.648;1.214;2022-07-23T01:06:21;4.85;;;1.35;;
66380;SDS011;53177;52.648;1.214;2022-07-23T01:08:47;5.00;;;1.40;;
66380;SDS011;53177;52.648;1.214;2022-07-23T01:11:12;6.60;;;1.50;;
66380;SDS011;53177;52.648;1.214;2022-07-23T01:13:44;5.55;;;1.73;;
66380;SDS011;53177;52.648;1.214;2022-07-23T01:16:10;4.97;;;1.38;;
66380;SDS011;53177;52.648;1.214;2022-07-23T01:18:35;5.30;;;1.30;;
66380;SDS011;53177;52.648;1.214;2022-07-23T01:21:00;4.73;;;1.30;;
66380;SDS011;53177;52.648;1.214;2022-07-23T01:23:26;4.63;;;1.50;;
66380;SDS011;53177;52.648;1.214;2022-07-23T01:25:52;3.80;;;1.40;;
66380;SDS011;53177;52.648;1.214;2022-07-23T01:28:18;5.63;;;1.55;;
66380;SDS011;53177;52.648;1.214;2022-07-23T01:30:44;4.40;;;1.10;;
66380;SDS011;53177;52.648;1.214;2022-07-23T01:33:10;5.78;;;2.03;;
66380;SDS011;53177;52.648;1.214;2022-07-23T01:35:36;3.73;;;1.30;;
66380;SDS011;53177;52.648;1.214;2022-07-23T01:38:01;5.80;;;1.80;;
66380;SDS011;53177;52.648;1.214;2022-07-23T01:40:27;6.05;;;1.65;;
66380;SDS011;53177;52.648;1.214;2022-07-23T01:42:52;6.23;;;1.70;;
66380;SDS011;53177;52.648;1.214;2022-07-23T01:45:17;6.13;;;1.60;;
66380;SDS011;53177;52.648;1.214;2022-07-23T01:47:43;3.90;;;1.30;;
66380;SDS011;53177;52.648;1.214;2022-07-23T01:50:09;5.47;;;1.55;;
66380;SDS011;53177;52.648;1.214;2022-07-23T01:52:34;5.83;;;1.73;;
66380;SDS011;53177;52.648;1.214;2022-07-23T01:55:00;4.80;;;1.67;;
66380;SDS011;53177;52.648;1.214;2022-07-23T01:57:25;7.47;;;1.80;;
66380;SDS011;53177;52.648;1.214;2022-07-23T01:59:50;4.33;;;1.67;;
66380;SDS011;53177;52.648;1.214;2022-07-23T02:02:16;6.07;;;1.50;;
66380;SDS011;53177;52.648;1.214;2022-07-23T02:04:41;5.77;;;1.60;;
66380;SDS011;53177;52.648;1.214;2022-07-23T02:07:07;4.70;;;1.40;;
66380;SDS011;53177;52.648;1.214;2022-07-23T02:09:32;7.23;;;1.60;;
66380;SDS011;53177;52.648;1.214;2022-07-23T02:11:57;4.63;;;1.65;;
66380;SDS011;53177;52.648;1.214;2022-07-23T02:14:23;4.73;;;1.60;;
66380;SDS011;53177;52.648;1.214;2022-07-23T02:16:49;6.63;;;1.75;;
66380;SDS011;53177;52.648;1.214;2022-07-23T02:19:15;5.90;;;1.93;;
66380;SDS011;53177;52.648;1.214;2022-07-23T02:21:40;4.30;;;1.93;;
66380;SDS011;53177;52.648;1.214;2022-07-23T02:24:05;4.73;;;1.73;;
66380;SDS011;53177;52.648;1.214;2022-07-23T02:26:31;5.53;;;1.70;;
66380;SDS011;53177;52.648;1.214;2022-07-23T02:29:00;4.30;;;1.50;;
66380;SDS011;53177;52.648;1.214;2022-07-23T02:31:27;4.55;;;1.50;;
66380;SDS011;53177;52.648;1.214;2022-07-23T02:33:53;6.50;;;1.70;;
66380;SDS011;53177;52.648;1.214;2022-07-23T02:36:18;4.70;;;1.50;;
66380;SDS011;53177;52.648;1.214;2022-07-23T02:38:43;6.57;;;1.90;;
66380;SDS011;53177;52.648;1.214;2022-07-23T02:41:09;5.83;;;1.70;;
66380;SDS011;53177;52.648;1.214;2022-07-23T02:43:34;5.50;;;1.60;;
66380;SDS011;53177;52.648;1.214;2022-07-23T02:45:59;4.77;;;1.47;;
66380;SDS011;53177;52.648;1.214;2022-07-23T02:48:25;5.20;;;1.52;;
66380;SDS011;53177;52.648;1.214;2022-07-23T02:50:51;4.13;;;1.60;;
66380;SDS011;53177;52.648;1.214;2022-07-23T02:53:17;6.97;;;1.85;;
66380;SDS011;53177;52.648;1.214;2022-07-23T02:55:42;5.00;;;1.80;;
66380;SDS011;53177;52.648;1.214;2022-07-23T02:58:08;5.35;;;1.80;;
66380;SDS011;53177;52.648;1.214;2022-07-23T03:00:33;4.23;;;1.50;;
66380;SDS011;53177;52.648;1.214;2022-07-23T03:02:59;6.27;;;1.80;;
66380;SDS011;53177;52.648;1.214;2022-07-23T03:05:24;4.77;;;1.70;;
66380;SDS011;53177;52.648;1.214;2022-07-23T03:07:49;5.27;;;1.80;;
66380;SDS011;53177;52.648;1.214;2022-07-23T03:10:15;5.43;;;1.70;;
66380;SDS011;53177;52.648;1.214;2022-07-23T03:12:41;5.90;;;1.70;;
66380;SDS011;53177;52.648;1.214;2022-07-23T03:15:07;6.93;;;1.90;;
66380;SDS011;53177;52.648;1.214;2022-07-23T03:17:33;4.25;;;1.40;;
66380;SDS011;53177;52.648;1.214;2022-07-23T03:19:58;5.07;;;1.50;;
66380;SDS011;53177;52.648;1.214;2022-07-23T03:22:25;5.20;;;1.80;;
66380;SDS011;53177;52.648;1.214;2022-07-23T03:24:52;4.87;;;1.90;;
66380;SDS011;53177;52.648;1.214;2022-07-23T03:27:20;4.05;;;1.50;;
66380;SDS011;53177;52.648;1.214;2022-07-23T03:29:50;5.63;;;1.60;;
66380;SDS011;53177;52.648;1.214;2022-07-23T03:32:16;4.78;;;1.83;;
66380;SDS011;53177;52.648;1.214;2022-07-23T03:34:41;3.80;;;1.63;;
66380;SDS011;53177;52.648;1.214;2022-07-23T03:37:07;4.20;;;1.60;;
66380;SDS011;53177;52.648;1.214;2022-07-23T03:39:34;4.80;;;1.73;;
66380;SDS011;53177;52.648;1.214;2022-07-23T03:42:00;5.83;;;1.60;;
66380;SDS011;53177;52.648;1.214;2022-07-23T03:44:26;5.13;;;1.80;;
66380;SDS011;53177;52.648;1.214;2022-07-23T03:46:51;5.47;;;1.90;;
66380;SDS011;53177;52.648;1.214;2022-07-23T03:49:17;4.43;;;1.50;;
66380;SDS011;53177;52.648;1.214;2022-07-23T03:51:42;5.30;;;1.73;;
66380;SDS011;53177;52.648;1.214;2022-07-23T03:54:08;5.20;;;1.80;;
66380;SDS011;53177;52.648;1.214;2022-07-23T03:56:33;5.50;;;1.80;;
66380;SDS011;53177;52.648;1.214;2022-07-23T03:58:59;6.55;;;1.90;;
66380;SDS011;53177;52.648;1.214;2022-07-23T04:01:24;4.87;;;1.70;;
66380;SDS011;53177;52.648;1.214;2022-07-23T04:03:49;4.77;;;1.70;;
66380;SDS011;53177;52.648;1.214;2022-07-23T04:06:15;6.10;;;1.70;;
66380;SDS011;53177;52.648;1.214;2022-07-23T04:08:40;4.20;;;1.80;;
66380;SDS011;53177;52.648;1.214;2022-07-23T04:11:05;6.90;;;2.20;;
66380;SDS011;53177;52.648;1.214;2022-07-23T04:13:31;6.53;;;2.27;;
66380;SDS011;53177;52.648;1.214;2022-07-23T04:15:57;7.00;;;2.30;;
66380;SDS011;53177;52.648;1.214;2022-07-23T04:18:23;5.50;;;2.10;;
66380;SDS011;53177;52.648;1.214;2022-07-23T04:20:50;5.78;;;2.00;;
66380;SDS011;53177;52.648;1.214;2022-07-23T04:23:15;5.13;;;2.20;;
66380;SDS011;53177;52.648;1.214;2022-07-23T04:25:41;6.32;;;1.90;;
66380;SDS011;53177;52.648;1.214;2022-07-23T04:28:07;6.53;;;2.05;;
66380;SDS011;53177;52.648;1.214;2022-07-23T04:30:33;5.03;;;2.00;;
66380;SDS011;53177;52.648;1.214;2022-07-23T04:32:58;5.75;;;2.10;;
66380;SDS011;53177;52.648;1.214;2022-07-23T04:35:24;6.80;;;1.97;;
66380;SDS011;53177;52.648;1.214;2022-07-23T04:37:50;8.00;;;2.30;;
66380;SDS011;53177;52.648;1.214;2022-07-23T04:40:15;5.22;;;2.17;;
66380;SDS011;53177;52.648;1.214;2022-07-23T04:42:41;8.13;;;2.23;;
66380;SDS011;53177;52.648;1.214;2022-07-23T04:45:07;6.13;;;2.20;;
66380;SDS011;53177;52.648;1.214;2022-07-23T04:47:32;9.37;;;2.10;;
66380;SDS011;53177;52.648;1.214;2022-07-23T04:49:58;7.40;;;2.20;;
66380;SDS011;53177;52.648;1.214;2022-07-23T04:52:23;5.53;;;1.90;;
66380;SDS011;53177;52.648;1.214;2022-07-23T04:54:49;5.37;;;1.77;;
66380;SDS011;53177;52.648;1.214;2022-07-23T04:57:15;5.00;;;1.90;;
66380;SDS011;53177;52.648;1.214;2022-07-23T04:59:40;4.60;;;2.00;;
66380;SDS011;53177;52.648;1.214;2022-07-23T05:02:06;5.10;;;2.00;;
66380;SDS011;53177;52.648;1.214;2022-07-23T05:04:31;4.70;;;2.13;;
66380;SDS011;53177;52.648;1.214;2022-07-23T05:06:57;7.97;;;1.95;;
66380;SDS011;53177;52.648;1.214;2022-07-23T05:09:23;6.63;;;2.13;;
66380;SDS011;53177;52.648;1.214;2022-07-23T05:11:49;6.47;;;2.10;;
66380;SDS011;53177;52.648;1.214;2022-07-23T05:14:14;6.70;;;2.20;;
66380;SDS011;53177;52.648;1.214;2022-07-23T05:16:40;7.90;;;2.35;;
66380;SDS011;53177;52.648;1.214;2022-07-23T05:19:05;5.53;;;1.90;;
66380;SDS011;53177;52.648;1.214;2022-07-23T05:21:31;7.07;;;2.50;;
66380;SDS011;53177;52.648;1.214;2022-07-23T05:23:56;5.43;;;2.00;;
66380;SDS011;53177;52.648;1.214;2022-07-23T05:26:21;9.93;;;2.65;;
66380;SDS011;53177;52.648;1.214;2022-07-23T05:28:47;6.83;;;2.17;;
66380;SDS011;53177;52.648;1.214;2022-07-23T05:31:12;4.70;;;1.73;;
66380;SDS011;53177;52.648;1.214;2022-07-23T05:33:38;6.23;;;2.10;;
66380;SDS011;53177;52.648;1.214;2022-07-23T05:36:03;5.77;;;2.00;;
66380;SDS011;53177;52.648;1.214;2022-07-23T05:38:29;4.53;;;1.53;;
66380;SDS011;53177;52.648;1.214;2022-07-23T05:40:55;5.22;;;1.90;;
66380;SDS011;53177;52.648;1.214;2022-07-23T05:43:20;6.60;;;1.90;;
66380;SDS011;53177;52.648;1.214;2022-07-23T05:45:46;5.97;;;1.87;;
66380;SDS011;53177;52.648;1.214;2022-07-23T05:48:11;5.07;;;1.60;;
66380;SDS011;53177;52.648;1.214;2022-07-23T05:50:36;5.23;;;1.80;;
66380;SDS011;53177;52.648;1.214;2022-07-23T05:53:02;4.67;;;1.83;;
66380;SDS011;53177;52.648;1.214;2022-07-23T05:55:27;5.00;;;1.83;;
66380;SDS011;53177;52.648;1.214;2022-07-23T05:57:56;6.45;;;1.95;;
66380;SDS011;53177;52.648;1.214;2022-07-23T06:00:22;7.63;;;1.80;;
66380;SDS011;53177;52.648;1.214;2022-07-23T06:02:49;5.57;;;1.87;;
66380;SDS011;53177;52.648;1.214;2022-07-23T06:05:15;6.05;;;1.92;;
66380;SDS011;53177;52.648;1.214;2022-07-23T06:07:41;4.40;;;1.70;;
66380;SDS011;53177;52.648;1.214;2022-07-23T06:10:07;4.67;;;1.67;;
66380;SDS011;53177;52.648;1.214;2022-07-23T06:12:33;7.07;;;1.83;;
66380;SDS011;53177;52.648;1.214;2022-07-23T06:14:58;4.67;;;1.70;;
66380;SDS011;53177;52.648;1.214;2022-07-23T06:17:24;4.13;;;1.80;;
66380;SDS011;53177;52.648;1.214;2022-07-23T06:19:49;4.63;;;1.70;;
66380;SDS011;53177;52.648;1.214;2022-07-23T06:22:15;5.13;;;1.80;;
66380;SDS011;53177;52.648;1.214;2022-07-23T06:24:40;7.73;;;1.80;;
66380;SDS011;53177;52.648;1.214;2022-07-23T06:27:06;4.68;;;1.83;;
66380;SDS011;53177;52.648;1.214;2022-07-23T06:29:31;5.37;;;1.90;;
66380;SDS011;53177;52.648;1.214;2022-07-23T06:31:56;6.47;;;1.77;;
66380;SDS011;53177;52.648;1.214;2022-07-23T06:34:22;5.07;;;1.77;;
66380;SDS011;53177;52.648;1.214;2022-07-23T06:36:47;6.00;;;2.00;;
66380;SDS011;53177;52.648;1.214;2022-07-23T06:39:13;4.95;;;2.00;;
66380;SDS011;53177;52.648;1.214;2022-07-23T06:41:38;6.13;;;1.70;;
66380;SDS011;53177;52.648;1.214;2022-07-23T06:44:04;4.77;;;1.90;;
66380;SDS011;53177;52.648;1.214;2022-07-23T06:46:29;5.70;;;2.10;;
66380;SDS011;53177;52.648;1.214;2022-07-23T06:48:55;5.60;;;1.80;;
66380;SDS011;53177;52.648;1.214;2022-07-23T06:51:20;7.00;;;2.30;;
66380;SDS011;53177;52.648;1.214;2022-07-23T06:53:46;5.67;;;1.80;;
66380;SDS011;53177;52.648;1.214;2022-07-23T06:56:11;8.63;;;1.80;;
66380;SDS011;53177;52.648;1.214;2022-07-23T06:58:37;4.33;;;1.63;;
66380;SDS011;53177;52.648;1.214;2022-07-23T07:01:02;5.73;;;2.00;;
66380;SDS011;53177;52.648;1.214;2022-07-23T07:03:27;5.50;;;1.93;;
66380;SDS011;53177;52.648;1.214;2022-07-23T07:05:53;5.60;;;2.00;;
66380;SDS011;53177;52.648;1.214;2022-07-23T07:08:18;5.90;;;1.90;;
66380;SDS011;53177;52.648;1.214;2022-07-23T07:10:44;7.13;;;2.20;;
66380;SDS011;53177;52.648;1.214;2022-07-23T07:13:09;6.60;;;1.80;;
66380;SDS011;53177;52.648;1.214;2022-07-23T07:15:35;8.18;;;2.05;;
66380;SDS011;53177;52.648;1.214;2022-07-23T07:18:00;5.67;;;2.20;;
66380;SDS011;53177;52.648;1.214;2022-07-23T07:20:25;6.03;;;2.07;;
66380;SDS011;53177;52.648;1.214;2022-07-23T07:22:51;8.37;;;1.80;;
66380;SDS011;53177;52.648;1.214;2022-07-23T07:25:16;4.40;;;1.50;;
66380;SDS011;53177;52.648;1.214;2022-07-23T07:27:42;3.75;;;1.52;;
66380;SDS011;53177;52.648;1.214;2022-07-23T07:30:09;6.07;;;1.90;;
66380;SDS011;53177;52.648;1.214;2022-07-23T07:32:36;5.03;;;1.55;;
66380;SDS011;53177;52.648;1.214;2022-07-23T07:35:03;6.97;;;1.70;;
66380;SDS011;53177;52.648;1.214;2022-07-23T07:37:29;7.50;;;2.30;;
66380;SDS011;53177;52.648;1.214;2022-07-23T07:39:54;7.65;;;1.80;;
66380;SDS011;53177;52.648;1.214;2022-07-23T07:42:20;6.60;;;2.20;;
66380;SDS011;53177;52.648;1.214;2022-07-23T07:44:46;4.88;;;1.60;;
66380;SDS011;53177;52.648;1.214;2022-07-23T07:47:11;4.97;;;2.03;;
66380;SDS011;53177;52.648;1.214;2022-07-23T07:49:37;9.33;;;2.00;;
66380;SDS011;53177;52.648;1.214;2022-07-23T07:52:02;5.60;;;2.10;;
66380;SDS011;53177;52.648;1.214;2022-07-23T07:54:28;6.07;;;2.10;;
66380;SDS011;53177;52.648;1.214;2022-07-23T07:56:53;6.30;;;2.20;;
66380;SDS011;53177;52.648;1.214;2022-07-23T07:59:19;6.37;;;2.60;;
66380;SDS011;53177;52.648;1.214;2022-07-23T08:01:44;5.20;;;2.00;;
66380;SDS011;53177;52.648;1.214;2022-07-23T08:04:09;5.63;;;2.30;;
66380;SDS011;53177;52.648;1.214;2022-07-23T08:06:35;6.27;;;2.30;;
66380;SDS011;53177;52.648;1.214;2022-07-23T08:09:00;6.57;;;2.60;;
66380;SDS011;53177;52.648;1.214;2022-07-23T08:11:26;8.07;;;3.40;;
66380;SDS011;53177;52.648;1.214;2022-07-23T08:13:51;8.02;;;2.97;;
66380;SDS011;53177;52.648;1.214;2022-07-23T08:16:16;6.07;;;2.90;;
66380;SDS011;53177;52.648;1.214;2022-07-23T08:18:42;5.90;;;2.17;;
66380;SDS011;53177;52.648;1.214;2022-07-23T08:21:07;7.30;;;2.97;;
66380;SDS011;53177;52.648;1.214;2022-07-23T08:23:33;8.50;;;3.33;;
66380;SDS011;53177;52.648;1.214;2022-07-23T08:25:59;8.83;;;3.40;;
66380;SDS011;53177;52.648;1.214;2022-07-23T08:28:26;7.18;;;3.25;;
66380;SDS011;53177;52.648;1.214;2022-07-23T08:30:51;7.03;;;3.60;;
66380;SDS011;53177;52.648;1.214;2022-07-23T08:33:17;7.77;;;3.00;;
66380;SDS011;53177;52.648;1.214;2022-07-23T08:35:47;7.68;;;3.20;;
66380;SDS011;53177;52.648;1.214;2022-07-23T08:38:16;10.35;;;3.70;;
66380;SDS011;53177;52.648;1.214;2022-07-23T08:40:49;9.40;;;3.97;;
66380;SDS011;53177;52.648;1.214;2022-07-23T08:43:23;7.03;;;3.20;;
66380;SDS011;53177;52.648;1.214;2022-07-23T08:45:50;7.18;;;3.60;;
66380;SDS011;53177;52.648;1.214;2022-07-23T08:48:18;6.93;;;2.90;;
66380;SDS011;53177;52.648;1.214;2022-07-23T08:50:47;7.68;;;2.85;;
66380;SDS011;53177;52.648;1.214;2022-07-23T08:53:14;7.43;;;3.20;;
66380;SDS011;53177;52.648;1.214;2022-07-23T08:55:43;8.82;;;2.80;;
66380;SDS011;53177;52.648;1.214;2022-07-23T08:58:09;6.95;;;3.08;;
66380;SDS011;53177;52.648;1.214;2022-07-23T09:00:35;9.97;;;2.70;;
66380;SDS011;53177;52.648;1.214;2022-07-23T09:03:00;6.60;;;2.83;;
66380;SDS011;53177;52.648;1.214;2022-07-23T09:05:26;6.30;;;2.77;;
66380;SDS011;53177;52.648;1.214;2022-07-23T09:11:10;6.72;;;3.35;;
66380;SDS011;53177;52.648;1.214;2022-07-23T09:13:41;10.47;;;3.00;;
66380;SDS011;53177;52.648;1.214;2022-07-23T09:16:29;8.55;;;3.67;;
66380;SDS011;53177;52.648;1.214;2022-07-23T09:19:03;9.63;;;3.30;;
66380;SDS011;53177;52.648;1.214;2022-07-23T09:21:33;9.10;;;3.75;;
66380;SDS011;53177;52.648;1.214;2022-07-23T09:26:33;7.87;;;3.33;;
66380;SDS011;53177;52.648;1.214;2022-07-23T09:31:34;10.32;;;4.40;;
66380;SDS011;53177;52.648;1.214;2022-07-23T09:34:10;9.57;;;3.72;;
66380;SDS011;53177;52.648;1.214;2022-07-23T09:36:39;9.27;;;3.67;;
66380;SDS011;53177;52.648;1.214;2022-07-23T09:39:05;10.17;;;4.00;;
66380;SDS011;53177;52.648;1.214;2022-07-23T09:41:39;9.35;;;3.80;;
66380;SDS011;53177;52.648;1.214;2022-07-23T09:44:07;9.43;;;3.60;;
66380;SDS011;53177;52.648;1.214;2022-07-23T09:46:44;8.13;;;3.43;;
66380;SDS011;53177;52.648;1.214;2022-07-23T09:49:18;9.13;;;3.78;;
66380;SDS011;53177;52.648;1.214;2022-07-23T09:51:49;9.73;;;3.47;;
66380;SDS011;53177;52.648;1.214;2022-07-23T09:59:38;9.60;;;4.27;;
66380;SDS011;53177;52.648;1.214;2022-07-23T10:02:05;9.43;;;3.67;;
66380;SDS011;53177;52.648;1.214;2022-07-23T10:04:33;8.40;;;3.90;;
66380;SDS011;53177;52.648;1.214;2022-07-23T10:07:00;7.80;;;3.30;;
66380;SDS011;53177;52.648;1.214;2022-07-23T10:09:31;8.43;;;4.97;;
66380;SDS011;53177;52.648;1.214;2022-07-23T10:12:05;6.83;;;3.40;;
66380;SDS011;53177;52.648;1.214;2022-07-23T10:14:54;9.20;;;4.20;;
66380;SDS011;53177;52.648;1.214;2022-07-23T10:17:25;8.10;;;3.95;;
66380;SDS011;53177;52.648;1.214;2022-07-23T10:19:50;8.40;;;4.00;;
66380;SDS011;53177;52.648;1.214;2022-07-23T10:22:33;8.07;;;3.87;;
66380;SDS011;53177;52.648;1.214;2022-07-23T10:25:10;8.27;;;4.00;;
66380;SDS011;53177;52.648;1.214;2022-07-23T10:27:47;8.88;;;3.90;;
66380;SDS011;53177;52.648;1.214;2022-07-23T10:30:27;8.37;;;3.53;;
66380;SDS011;53177;52.648;1.214;2022-07-23T10:32:56;7.28;;;4.07;;
66380;SDS011;53177;52.648;1.214;2022-07-23T10:38:35;9.55;;;4.55;;
66380;SDS011;53177;52.648;1.214;2022-07-23T10:41:08;7.88;;;3.80;;
66380;SDS011;53177;52.648;1.214;2022-07-23T10:43:34;9.23;;;4.00;;
66380;SDS011;53177;52.648;1.214;2022-07-23T10:57:23;7.90;;;4.03;;
66380;SDS011;53177;52.648;1.214;2022-07-23T11:02:34;7.30;;;3.97;;
66380;SDS011;53177;52.648;1.214;2022-07-23T11:05:02;7.13;;;3.55;;
66380;SDS011;53177;52.648;1.214;2022-07-23T11:07:30;9.35;;;4.10;;
66380;SDS011;53177;52.648;1.214;2022-07-23T11:09:55;6.40;;;3.83;;
66380;SDS011;53177;52.648;1.214;2022-07-23T11:17:24;7.05;;;3.65;;
66380;SDS011;53177;52.648;1.214;2022-07-23T11:25:09;7.73;;;3.87;;
66380;SDS011;53177;52.648;1.214;2022-07-23T11:27:55;8.32;;;4.03;;
66380;SDS011;53177;52.648;1.214;2022-07-23T11:30:38;7.47;;;3.90;;
66380;SDS011;53177;52.648;1.214;2022-07-23T11:35:38;8.60;;;4.20;;
66380;SDS011;53177;52.648;1.214;2022-07-23T11:40:34;7.28;;;3.72;;
66380;SDS011;53177;52.648;1.214;2022-07-23T11:45:34;7.88;;;3.60;;
66380;SDS011;53177;52.648;1.214;2022-07-23T11:48:03;6.35;;;3.30;;
66380;SDS011;53177;52.648;1.214;2022-07-23T11:50:30;6.93;;;3.70;;
66380;SDS011;53177;52.648;1.214;2022-07-23T11:52:56;6.45;;;3.88;;
66380;SDS011;53177;52.648;1.214;2022-07-23T11:55:21;7.28;;;3.63;;
66380;SDS011;53177;52.648;1.214;2022-07-23T11:57:47;7.20;;;4.00;;
66380;SDS011;53177;52.648;1.214;2022-07-23T12:00:15;8.03;;;3.80;;
66380;SDS011;53177;52.648;1.214;2022-07-23T12:03:02;8.63;;;3.55;;
66380;SDS011;53177;52.648;1.214;2022-07-23T12:05:32;8.88;;;3.70;;
66380;SDS011;53177;52.648;1.214;2022-07-23T12:08:00;8.07;;;3.60;;
66380;SDS011;53177;52.648;1.214;2022-07-23T12:10:28;7.23;;;3.67;;
66380;SDS011;53177;52.648;1.214;2022-07-23T12:12:56;6.95;;;3.38;;
66380;SDS011;53177;52.648;1.214;2022-07-23T12:17:57;7.97;;;3.72;;
66380;SDS011;53177;52.648;1.214;2022-07-23T12:20:26;5.95;;;3.50;;
66380;SDS011;53177;52.648;1.214;2022-07-23T12:22:58;7.07;;;3.50;;
66380;SDS011;53177;52.648;1.214;2022-07-23T12:25:26;6.53;;;3.10;;
66380;SDS011;53177;52.648;1.214;2022-07-23T12:28:13;6.40;;;3.17;;
66380;SDS011;53177;52.648;1.214;2022-07-23T12:33:06;6.70;;;3.17;;
66380;SDS011;53177;52.648;1.214;2022-07-23T12:35:40;6.55;;;3.63;;
66380;SDS011;53177;52.648;1.214;2022-07-23T12:38:17;6.85;;;3.55;;
66380;SDS011;53177;52.648;1.214;2022-07-23T12:40:45;7.40;;;3.40;;
66380;SDS011;53177;52.648;1.214;2022-07-23T12:43:20;6.45;;;3.70;;
66380;SDS011;53177;52.648;1.214;2022-07-23T12:45:50;7.90;;;3.53;;
66380;SDS011;53177;52.648;1.214;2022-07-23T12:48:18;6.93;;;3.42;;
66380;SDS011;53177;52.648;1.214;2022-07-23T12:50:49;7.25;;;3.30;;
66380;SDS011;53177;52.648;1.214;2022-07-23T12:53:42;6.77;;;3.73;;
66380;SDS011;53177;52.648;1.214;2022-07-23T12:56:17;6.78;;;3.30;;
66380;SDS011;53177;52.648;1.214;2022-07-23T13:06:34;5.47;;;2.97;;
66380;SDS011;53177;52.648;1.214;2022-07-23T13:09:09;5.05;;;2.78;;
66380;SDS011;53177;52.648;1.214;2022-07-23T13:11:37;5.47;;;2.90;;
66380;SDS011;53177;52.648;1.214;2022-07-23T13:14:03;5.40;;;2.60;;
66380;SDS011;53177;52.648;1.214;2022-07-23T13:16:29;6.07;;;2.93;;
66380;SDS011;53177;52.648;1.214;2022-07-23T13:18:57;7.00;;;3.25;;
66380;SDS011;53177;52.648;1.214;2022-07-23T13:21:24;6.38;;;2.63;;
66380;SDS011;53177;52.648;1.214;2022-07-23T13:23:50;7.40;;;2.80;;
66380;SDS011;53177;52.648;1.214;2022-07-23T13:26:16;7.65;;;2.65;;
66380;SDS011;53177;52.648;1.214;2022-07-23T13:28:41;6.33;;;2.67;;
66380;SDS011;53177;52.648;1.214;2022-07-23T13:31:07;7.00;;;2.90;;
66380;SDS011;53177;52.648;1.214;2022-07-23T13:33:33;5.78;;;2.70;;
66380;SDS011;53177;52.648;1.214;2022-07-23T13:35:59;7.72;;;3.00;;
66380;SDS011;53177;52.648;1.214;2022-07-23T13:38:25;7.32;;;2.90;;
66380;SDS011;53177;52.648;1.214;2022-07-23T13:40:51;7.37;;;2.80;;
66380;SDS011;53177;52.648;1.214;2022-07-23T13:43:18;6.03;;;2.67;;
66380;SDS011;53177;52.648;1.214;2022-07-23T13:45:45;6.30;;;2.70;;
66380;SDS011;53177;52.648;1.214;2022-07-23T13:48:12;5.00;;;2.60;;
66380;SDS011;53177;52.648;1.214;2022-07-23T13:50:39;4.93;;;2.80;;
66380;SDS011;53177;52.648;1.214;2022-07-23T13:53:06;5.33;;;2.50;;
66380;SDS011;53177;52.648;1.214;2022-07-23T13:55:34;5.47;;;2.45;;
66380;SDS011;53177;52.648;1.214;2022-07-23T13:58:00;5.55;;;2.67;;
66380;SDS011;53177;52.648;1.214;2022-07-23T14:00:26;5.15;;;2.47;;
66380;SDS011;53177;52.648;1.214;2022-07-23T14:02:53;5.53;;;2.50;;
66380;SDS011;53177;52.648;1.214;2022-07-23T14:05:18;9.25;;;2.80;;
66380;SDS011;53177;52.648;1.214;2022-07-23T14:07:44;5.55;;;2.60;;
66380;SDS011;53177;52.648;1.214;2022-07-23T14:10:12;5.50;;;2.40;;
66380;SDS011;53177;52.648;1.214;2022-07-23T14:12:42;5.97;;;2.63;;
66380;SDS011;53177;52.648;1.214;2022-07-23T14:15:07;5.93;;;2.47;;
66380;SDS011;53177;52.648;1.214;2022-07-23T14:17:34;5.63;;;2.55;;
66380;SDS011;53177;52.648;1.214;2022-07-23T14:20:02;4.63;;;2.15;;
66380;SDS011;53177;52.648;1.214;2022-07-23T14:22:28;5.72;;;2.63;;
66380;SDS011;53177;52.648;1.214;2022-07-23T14:24:53;4.73;;;2.53;;
66380;SDS011;53177;52.648;1.214;2022-07-23T14:27:19;6.90;;;2.70;;
66380;SDS011;53177;52.648;1.214;2022-07-23T14:29:44;4.70;;;2.17;;
66380;SDS011;53177;52.648;1.214;2022-07-23T14:32:10;5.87;;;2.40;;
66380;SDS011;53177;52.648;1.214;2022-07-23T14:34:35;5.50;;;2.50;;
66380;SDS011;53177;52.648;1.214;2022-07-23T14:37:00;5.50;;;2.80;;
66380;SDS011;53177;52.648;1.214;2022-07-23T14:39:26;5.60;;;2.67;;
66380;SDS011;53177;52.648;1.214;2022-07-23T14:41:52;5.27;;;2.80;;
66380;SDS011;53177;52.648;1.214;2022-07-23T14:44:17;5.68;;;2.60;;
66380;SDS011;53177;52.648;1.214;2022-07-23T14:46:43;5.20;;;2.60;;
66380;SDS011;53177;52.648;1.214;2022-07-23T14:49:08;6.83;;;2.60;;
66380;SDS011;53177;52.648;1.214;2022-07-23T14:51:34;4.93;;;2.43;;
66380;SDS011;53177;52.648;1.214;2022-07-23T14:53:59;5.88;;;2.85;;
66380;SDS011;53177;52.648;1.214;2022-07-23T14:56:25;5.50;;;2.90;;
66380;SDS011;53177;52.648;1.214;2022-07-23T14:58:50;4.67;;;2.83;;
66380;SDS011;53177;52.648;1.214;2022-07-23T15:01:16;5.30;;;2.70;;
66380;SDS011;53177;52.648;1.214;2022-07-23T15:03:41;6.90;;;3.50;;
66380;SDS011;53177;52.648;1.214;2022-07-23T15:06:07;6.50;;;3.60;;
66380;SDS011;53177;52.648;1.214;2022-07-23T15:08:32;6.43;;;3.43;;
66380;SDS011;53177;52.648;1.214;2022-07-23T15:10:58;5.63;;;3.13;;
66380;SDS011;53177;52.648;1.214;2022-07-23T15:13:24;5.10;;;2.80;;
66380;SDS011;53177;52.648;1.214;2022-07-23T15:15:49;5.30;;;2.80;;
66380;SDS011;53177;52.648;1.214;2022-07-23T15:18:14;4.87;;;2.80;;
66380;SDS011;53177;52.648;1.214;2022-07-23T15:20:40;5.40;;;2.70;;
66380;SDS011;53177;52.648;1.214;2022-07-23T15:23:05;5.63;;;2.63;;
66380;SDS011;53177;52.648;1.214;2022-07-23T15:25:31;6.30;;;2.70;;
66380;SDS011;53177;52.648;1.214;2022-07-23T15:27:57;5.57;;;2.90;;
66380;SDS011;53177;52.648;1.214;2022-07-23T15:30:24;6.03;;;2.70;;
66380;SDS011;53177;52.648;1.214;2022-07-23T15:32:51;5.90;;;2.90;;
66380;SDS011;53177;52.648;1.214;2022-07-23T15:35:17;6.63;;;2.67;;
66380;SDS011;53177;52.648;1.214;2022-07-23T15:37:42;5.97;;;2.90;;
66380;SDS011;53177;52.648;1.214;2022-07-23T15:40:08;6.63;;;3.03;;
66380;SDS011;53177;52.648;1.214;2022-07-23T15:42:34;7.28;;;3.08;;
66380;SDS011;53177;52.648;1.214;2022-07-23T15:44:59;5.87;;;3.47;;
66380;SDS011;53177;52.648;1.214;2022-07-23T15:47:25;6.32;;;2.90;;